sensor_id;sensor_type;location;lat;lon;timestamp;P1;durP1;ratioP1;P2;durP2;ratioP2
37409;SDS011;23275;48.914;12.566;2023-05-15T00:01:31;1.65;;;0.90;;
37409;SDS011;23275;48.914;12.566;2023-05-15T00:03:56;4.00;;;0.90;;
37409;SDS011;23275;48.914;12.566;2023-05-15T00:06:22;1.75;;;1.10;;
37409;SDS011;23275;48.914;12.566;2023-05-15T00:08:48;2.08;;;0.95;;
37409;SDS011;23275;48.914;12.566;2023-05-15T00:11:13;3.55;;;1.27;;
37409;SDS011;23275;48.914;12.566;2023-05-15T00:13:39;3.88;;;1.20;;
37409;SDS011;23275;48.914;12.566;2023-05-15T00:16:07;2.67;;;1.20;;
37409;SDS011;23275;48.914;12.566;2023-05-15T00:18:33;2.47;;;1.40;;
37409;SDS011;23275;48.914;12.566;2023-05-15T00:20:59;2.92;;;1.35;;
37409;SDS011;23275;48.914;12.566;2023-05-15T00:23:25;1.85;;;1.05;;
37409;SDS011;23275;48.914;12.566;2023-05-15T00:25:51;3.75;;;1.20;;
37409;SDS011;23275;48.914;12.566;2023-05-15T00:28:16;1.73;;;1.13;;
37409;SDS011;23275;48.914;12.566;2023-05-15T00:30:42;3.42;;;1.27;;
37409;SDS011;23275;48.914;12.566;2023-05-15T00:33:07;1.48;;;1.10;;
37409;SDS011;23275;48.914;12.566;2023-05-15T00:35:33;2.40;;;1.30;;
37409;SDS011;23275;48.914;12.566;2023-05-15T00:37:58;2.53;;;1.55;;
37409;SDS011;23275;48.914;12.566;2023-05-15T00:40:24;3.25;;;1.58;;
37409;SDS011;23275;48.914;12.566;2023-05-15T00:42:52;3.55;;;1.35;;
37409;SDS011;23275;48.914;12.566;2023-05-15T00:45:18;5.43;;;1.38;;
37409;SDS011;23275;48.914;12.566;2023-05-15T00:47:45;2.35;;;1.20;;
37409;SDS011;23275;48.914;12.566;2023-05-15T00:50:12;3.70;;;1.85;;
37409;SDS011;23275;48.914;12.566;2023-05-15T00:52:37;4.90;;;1.80;;
37409;SDS011;23275;48.914;12.566;2023-05-15T00:55:03;2.78;;;1.30;;
37409;SDS011;23275;48.914;12.566;2023-05-15T00:57:30;3.38;;;1.77;;
37409;SDS011;23275;48.914;12.566;2023-05-15T00:59:56;2.67;;;1.95;;
37409;SDS011;23275;48.914;12.566;2023-05-15T01:02:25;3.50;;;1.75;;
37409;SDS011;23275;48.914;12.566;2023-05-15T01:04:50;3.05;;;1.70;;
37409;SDS011;23275;48.914;12.566;2023-05-15T01:07:16;3.58;;;1.90;;
37409;SDS011;23275;48.914;12.566;2023-05-15T01:09:42;3.35;;;1.95;;
37409;SDS011;23275;48.914;12.566;2023-05-15T01:12:08;2.63;;;1.73;;
37409;SDS011;23275;48.914;12.566;2023-05-15T01:14:35;4.03;;;1.73;;
37409;SDS011;23275;48.914;12.566;2023-05-15T01:17:01;4.00;;;2.50;;
37409;SDS011;23275;48.914;12.566;2023-05-15T01:19:27;3.65;;;1.85;;
37409;SDS011;23275;48.914;12.566;2023-05-15T01:25:03;2.78;;;1.85;;
37409;SDS011;23275;48.914;12.566;2023-05-15T01:30:21;3.70;;;2.38;;
37409;SDS011;23275;48.914;12.566;2023-05-15T01:33:05;3.75;;;2.15;;
37409;SDS011;23275;48.914;12.566;2023-05-15T01:35:46;3.70;;;2.00;;
37409;SDS011;23275;48.914;12.566;2023-05-15T01:44:06;6.15;;;2.40;;
37409;SDS011;23275;48.914;12.566;2023-05-15T01:46:39;2.88;;;2.15;;
37409;SDS011;23275;48.914;12.566;2023-05-15T01:49:10;4.63;;;2.63;;
37409;SDS011;23275;48.914;12.566;2023-05-15T01:54:06;4.50;;;2.00;;
37409;SDS011;23275;48.914;12.566;2023-05-15T01:56:34;3.00;;;2.10;;
37409;SDS011;23275;48.914;12.566;2023-05-15T01:59:00;2.63;;;2.03;;
37409;SDS011;23275;48.914;12.566;2023-05-15T02:01:28;2.88;;;2.00;;
37409;SDS011;23275;48.914;12.566;2023-05-15T02:03:56;3.83;;;2.42;;
37409;SDS011;23275;48.914;12.566;2023-05-15T02:06:23;4.85;;;1.98;;
37409;SDS011;23275;48.914;12.566;2023-05-15T02:08:49;3.70;;;2.28;;
37409;SDS011;23275;48.914;12.566;2023-05-15T02:11:16;4.82;;;2.35;;
37409;SDS011;23275;48.914;12.566;2023-05-15T02:13:42;2.83;;;2.10;;
37409;SDS011;23275;48.914;12.566;2023-05-15T02:16:08;3.20;;;2.45;;
37409;SDS011;23275;48.914;12.566;2023-05-15T02:18:34;3.33;;;2.40;;
37409;SDS011;23275;48.914;12.566;2023-05-15T02:20:59;4.50;;;2.60;;
37409;SDS011;23275;48.914;12.566;2023-05-15T02:23:26;4.75;;;2.00;;
37409;SDS011;23275;48.914;12.566;2023-05-15T02:26:00;3.88;;;2.25;;
37409;SDS011;23275;48.914;12.566;2023-05-15T02:29:12;7.95;;;2.75;;
37409;SDS011;23275;48.914;12.566;2023-05-15T02:31:38;3.33;;;2.05;;
37409;SDS011;23275;48.914;12.566;2023-05-15T02:34:36;3.08;;;2.22;;
37409;SDS011;23275;48.914;12.566;2023-05-15T02:37:09;3.97;;;2.08;;
37409;SDS011;23275;48.914;12.566;2023-05-15T02:39:39;3.40;;;2.60;;
37409;SDS011;23275;48.914;12.566;2023-05-15T02:42:08;3.85;;;2.53;;
37409;SDS011;23275;48.914;12.566;2023-05-15T02:44:35;3.83;;;2.65;;
37409;SDS011;23275;48.914;12.566;2023-05-15T02:47:02;4.90;;;2.70;;
37409;SDS011;23275;48.914;12.566;2023-05-15T02:49:29;3.50;;;2.53;;
37409;SDS011;23275;48.914;12.566;2023-05-15T02:51:55;3.55;;;2.50;;
37409;SDS011;23275;48.914;12.566;2023-05-15T02:54:20;3.80;;;2.60;;
37409;SDS011;23275;48.914;12.566;2023-05-15T02:56:46;3.70;;;2.60;;
37409;SDS011;23275;48.914;12.566;2023-05-15T02:59:12;3.42;;;2.38;;
37409;SDS011;23275;48.914;12.566;2023-05-15T03:01:42;2.83;;;2.10;;
37409;SDS011;23275;48.914;12.566;2023-05-15T03:04:08;4.00;;;2.67;;
37409;SDS011;23275;48.914;12.566;2023-05-15T03:06:34;3.40;;;2.58;;
37409;SDS011;23275;48.914;12.566;2023-05-15T03:08:59;4.97;;;2.47;;
37409;SDS011;23275;48.914;12.566;2023-05-15T03:11:25;4.63;;;2.53;;
37409;SDS011;23275;48.914;12.566;2023-05-15T03:13:50;4.63;;;2.55;;
37409;SDS011;23275;48.914;12.566;2023-05-15T03:16:16;4.40;;;2.45;;
37409;SDS011;23275;48.914;12.566;2023-05-15T03:18:42;4.20;;;2.67;;
37409;SDS011;23275;48.914;12.566;2023-05-15T03:21:07;3.63;;;2.40;;
37409;SDS011;23275;48.914;12.566;2023-05-15T03:23:33;4.65;;;2.28;;
37409;SDS011;23275;48.914;12.566;2023-05-15T03:25:58;4.85;;;3.30;;
37409;SDS011;23275;48.914;12.566;2023-05-15T03:28:25;6.20;;;2.80;;
37409;SDS011;23275;48.914;12.566;2023-05-15T03:30:50;4.47;;;2.85;;
37409;SDS011;23275;48.914;12.566;2023-05-15T03:33:16;4.22;;;2.60;;
37409;SDS011;23275;48.914;12.566;2023-05-15T03:35:41;3.47;;;2.78;;
37409;SDS011;23275;48.914;12.566;2023-05-15T03:38:08;4.40;;;2.60;;
37409;SDS011;23275;48.914;12.566;2023-05-15T03:40:34;3.80;;;2.88;;
37409;SDS011;23275;48.914;12.566;2023-05-15T03:43:01;3.63;;;2.42;;
37409;SDS011;23275;48.914;12.566;2023-05-15T03:45:27;3.83;;;2.70;;
37409;SDS011;23275;48.914;12.566;2023-05-15T03:47:52;2.83;;;2.17;;
37409;SDS011;23275;48.914;12.566;2023-05-15T03:50:18;3.20;;;2.35;;
37409;SDS011;23275;48.914;12.566;2023-05-15T03:52:44;3.92;;;2.30;;
37409;SDS011;23275;48.914;12.566;2023-05-15T03:55:09;4.35;;;2.33;;
37409;SDS011;23275;48.914;12.566;2023-05-15T03:57:35;3.20;;;2.70;;
37409;SDS011;23275;48.914;12.566;2023-05-15T04:00:00;5.20;;;2.33;;
37409;SDS011;23275;48.914;12.566;2023-05-15T04:02:28;3.58;;;2.45;;
37409;SDS011;23275;48.914;12.566;2023-05-15T04:04:53;5.80;;;2.22;;
37409;SDS011;23275;48.914;12.566;2023-05-15T04:07:19;3.67;;;2.42;;
37409;SDS011;23275;48.914;12.566;2023-05-15T04:09:44;4.20;;;2.60;;
37409;SDS011;23275;48.914;12.566;2023-05-15T04:12:10;4.47;;;2.30;;
37409;SDS011;23275;48.914;12.566;2023-05-15T04:14:35;3.58;;;2.33;;
37409;SDS011;23275;48.914;12.566;2023-05-15T04:17:01;4.30;;;2.97;;
37409;SDS011;23275;48.914;12.566;2023-05-15T04:19:27;4.88;;;2.38;;
37409;SDS011;23275;48.914;12.566;2023-05-15T04:21:52;3.85;;;3.08;;
37409;SDS011;23275;48.914;12.566;2023-05-15T04:24:18;4.20;;;2.78;;
37409;SDS011;23275;48.914;12.566;2023-05-15T04:26:43;5.20;;;3.00;;
37409;SDS011;23275;48.914;12.566;2023-05-15T04:29:09;4.28;;;2.65;;
37409;SDS011;23275;48.914;12.566;2023-05-15T04:31:34;4.38;;;2.90;;
37409;SDS011;23275;48.914;12.566;2023-05-15T04:34:00;3.67;;;2.58;;
37409;SDS011;23275;48.914;12.566;2023-05-15T04:36:25;5.40;;;3.15;;
37409;SDS011;23275;48.914;12.566;2023-05-15T04:38:51;3.10;;;2.30;;
37409;SDS011;23275;48.914;12.566;2023-05-15T04:41:16;4.18;;;2.63;;
37409;SDS011;23275;48.914;12.566;2023-05-15T04:43:42;4.85;;;3.10;;
37409;SDS011;23275;48.914;12.566;2023-05-15T04:46:08;4.80;;;2.83;;
37409;SDS011;23275;48.914;12.566;2023-05-15T04:48:34;4.00;;;2.80;;
37409;SDS011;23275;48.914;12.566;2023-05-15T04:50:59;4.30;;;2.88;;
37409;SDS011;23275;48.914;12.566;2023-05-15T04:53:25;3.15;;;2.25;;
37409;SDS011;23275;48.914;12.566;2023-05-15T04:55:51;6.03;;;2.92;;
37409;SDS011;23275;48.914;12.566;2023-05-15T04:58:16;3.97;;;2.85;;
37409;SDS011;23275;48.914;12.566;2023-05-15T05:00:42;3.63;;;2.70;;
37409;SDS011;23275;48.914;12.566;2023-05-15T05:03:07;6.03;;;2.90;;
37409;SDS011;23275;48.914;12.566;2023-05-15T05:05:33;4.97;;;2.58;;
37409;SDS011;23275;48.914;12.566;2023-05-15T05:07:58;3.15;;;2.40;;
37409;SDS011;23275;48.914;12.566;2023-05-15T05:10:24;3.45;;;2.83;;
37409;SDS011;23275;48.914;12.566;2023-05-15T05:12:49;4.38;;;3.10;;
37409;SDS011;23275;48.914;12.566;2023-05-15T05:15:15;4.90;;;3.00;;
37409;SDS011;23275;48.914;12.566;2023-05-15T05:17:41;4.00;;;2.88;;
37409;SDS011;23275;48.914;12.566;2023-05-15T05:20:07;3.53;;;2.22;;
37409;SDS011;23275;48.914;12.566;2023-05-15T05:22:33;4.38;;;2.67;;
37409;SDS011;23275;48.914;12.566;2023-05-15T05:24:58;4.80;;;2.78;;
37409;SDS011;23275;48.914;12.566;2023-05-15T05:27:24;3.90;;;2.50;;
37409;SDS011;23275;48.914;12.566;2023-05-15T05:29:50;4.18;;;2.55;;
37409;SDS011;23275;48.914;12.566;2023-05-15T05:32:18;4.38;;;3.03;;
37409;SDS011;23275;48.914;12.566;2023-05-15T05:34:43;5.25;;;2.72;;
37409;SDS011;23275;48.914;12.566;2023-05-15T05:37:09;6.05;;;3.15;;
37409;SDS011;23275;48.914;12.566;2023-05-15T05:39:41;3.42;;;2.45;;
37409;SDS011;23275;48.914;12.566;2023-05-15T05:42:13;3.90;;;2.70;;
37409;SDS011;23275;48.914;12.566;2023-05-15T05:44:39;4.35;;;2.65;;
37409;SDS011;23275;48.914;12.566;2023-05-15T05:47:07;6.40;;;3.20;;
37409;SDS011;23275;48.914;12.566;2023-05-15T05:49:32;4.78;;;3.03;;
37409;SDS011;23275;48.914;12.566;2023-05-15T05:52:03;6.93;;;3.30;;
37409;SDS011;23275;48.914;12.566;2023-05-15T05:54:32;3.88;;;3.00;;
37409;SDS011;23275;48.914;12.566;2023-05-15T05:56:58;3.97;;;2.95;;
37409;SDS011;23275;48.914;12.566;2023-05-15T05:59:23;4.63;;;3.20;;
37409;SDS011;23275;48.914;12.566;2023-05-15T06:01:49;4.85;;;3.28;;
37409;SDS011;23275;48.914;12.566;2023-05-15T06:04:17;3.88;;;2.78;;
37409;SDS011;23275;48.914;12.566;2023-05-15T06:06:43;3.67;;;2.88;;
37409;SDS011;23275;48.914;12.566;2023-05-15T06:09:09;4.85;;;3.25;;
37409;SDS011;23275;48.914;12.566;2023-05-15T06:11:35;4.50;;;3.10;;
37409;SDS011;23275;48.914;12.566;2023-05-15T06:14:01;4.28;;;2.72;;
37409;SDS011;23275;48.914;12.566;2023-05-15T06:16:26;7.18;;;3.15;;
37409;SDS011;23275;48.914;12.566;2023-05-15T06:18:53;5.32;;;3.03;;
37409;SDS011;23275;48.914;12.566;2023-05-15T06:21:19;3.80;;;3.13;;
37409;SDS011;23275;48.914;12.566;2023-05-15T06:23:46;4.82;;;3.13;;
37409;SDS011;23275;48.914;12.566;2023-05-15T06:26:13;4.00;;;2.70;;
37409;SDS011;23275;48.914;12.566;2023-05-15T06:28:39;4.47;;;3.03;;
37409;SDS011;23275;48.914;12.566;2023-05-15T06:31:06;4.22;;;3.05;;
37409;SDS011;23275;48.914;12.566;2023-05-15T06:33:32;4.45;;;2.67;;
37409;SDS011;23275;48.914;12.566;2023-05-15T06:35:57;4.38;;;2.55;;
37409;SDS011;23275;48.914;12.566;2023-05-15T06:38:23;5.95;;;3.25;;
37409;SDS011;23275;48.914;12.566;2023-05-15T06:40:48;5.40;;;3.00;;
37409;SDS011;23275;48.914;12.566;2023-05-15T06:43:14;4.88;;;3.47;;
37409;SDS011;23275;48.914;12.566;2023-05-15T06:45:40;8.63;;;4.47;;
37409;SDS011;23275;48.914;12.566;2023-05-15T06:48:05;6.05;;;3.97;;
37409;SDS011;23275;48.914;12.566;2023-05-15T06:50:31;6.85;;;4.10;;
37409;SDS011;23275;48.914;12.566;2023-05-15T06:52:58;5.57;;;3.50;;
37409;SDS011;23275;48.914;12.566;2023-05-15T06:55:23;4.40;;;2.90;;
37409;SDS011;23275;48.914;12.566;2023-05-15T06:57:52;4.53;;;3.15;;
37409;SDS011;23275;48.914;12.566;2023-05-15T07:00:17;4.40;;;2.80;;
37409;SDS011;23275;48.914;12.566;2023-05-15T07:02:44;4.38;;;2.75;;
37409;SDS011;23275;48.914;12.566;2023-05-15T07:05:09;3.95;;;2.58;;
37409;SDS011;23275;48.914;12.566;2023-05-15T07:07:35;3.75;;;2.50;;
37409;SDS011;23275;48.914;12.566;2023-05-15T07:10:00;3.20;;;2.25;;
37409;SDS011;23275;48.914;12.566;2023-05-15T07:12:26;3.85;;;2.38;;
37409;SDS011;23275;48.914;12.566;2023-05-15T07:14:52;5.57;;;2.92;;
37409;SDS011;23275;48.914;12.566;2023-05-15T07:17:17;3.92;;;3.08;;
37409;SDS011;23275;48.914;12.566;2023-05-15T07:19:43;5.45;;;2.50;;
37409;SDS011;23275;48.914;12.566;2023-05-15T07:22:09;4.10;;;2.90;;
37409;SDS011;23275;48.914;12.566;2023-05-15T07:24:34;5.57;;;2.47;;
37409;SDS011;23275;48.914;12.566;2023-05-15T07:27:02;3.97;;;2.50;;
37409;SDS011;23275;48.914;12.566;2023-05-15T07:29:28;4.20;;;2.17;;
37409;SDS011;23275;48.914;12.566;2023-05-15T07:31:56;3.90;;;2.50;;
37409;SDS011;23275;48.914;12.566;2023-05-15T07:34:21;3.83;;;1.92;;
37409;SDS011;23275;48.914;12.566;2023-05-15T07:36:47;2.47;;;1.27;;
37409;SDS011;23275;48.914;12.566;2023-05-15T07:39:13;4.28;;;1.55;;
37409;SDS011;23275;48.914;12.566;2023-05-15T07:41:39;3.70;;;1.40;;
37409;SDS011;23275;48.914;12.566;2023-05-15T07:44:05;2.33;;;1.48;;
37409;SDS011;23275;48.914;12.566;2023-05-15T07:46:31;2.03;;;1.27;;
37409;SDS011;23275;48.914;12.566;2023-05-15T07:48:57;3.08;;;1.35;;
37409;SDS011;23275;48.914;12.566;2023-05-15T07:51:22;2.30;;;1.20;;
37409;SDS011;23275;48.914;12.566;2023-05-15T07:53:48;2.55;;;1.48;;
37409;SDS011;23275;48.914;12.566;2023-05-15T07:56:14;1.65;;;1.10;;
37409;SDS011;23275;48.914;12.566;2023-05-15T07:58:39;2.65;;;1.23;;
37409;SDS011;23275;48.914;12.566;2023-05-15T08:01:05;2.83;;;1.40;;
37409;SDS011;23275;48.914;12.566;2023-05-15T08:03:31;1.92;;;1.10;;
37409;SDS011;23275;48.914;12.566;2023-05-15T08:05:57;2.55;;;0.95;;
37409;SDS011;23275;48.914;12.566;2023-05-15T08:08:24;2.10;;;1.10;;
37409;SDS011;23275;48.914;12.566;2023-05-15T08:10:49;1.83;;;0.98;;
37409;SDS011;23275;48.914;12.566;2023-05-15T08:13:15;1.52;;;1.10;;
37409;SDS011;23275;48.914;12.566;2023-05-15T08:15:40;1.75;;;0.93;;
37409;SDS011;23275;48.914;12.566;2023-05-15T08:18:07;3.38;;;1.02;;
37409;SDS011;23275;48.914;12.566;2023-05-15T08:20:34;1.80;;;0.98;;
37409;SDS011;23275;48.914;12.566;2023-05-15T08:23:00;1.63;;;0.90;;
37409;SDS011;23275;48.914;12.566;2023-05-15T08:25:25;1.65;;;1.00;;
37409;SDS011;23275;48.914;12.566;2023-05-15T08:27:51;1.67;;;0.80;;
37409;SDS011;23275;48.914;12.566;2023-05-15T08:30:17;1.70;;;0.90;;
37409;SDS011;23275;48.914;12.566;2023-05-15T08:32:42;2.47;;;1.10;;
37409;SDS011;23275;48.914;12.566;2023-05-15T08:35:12;1.75;;;1.23;;
37409;SDS011;23275;48.914;12.566;2023-05-15T08:37:38;2.20;;;1.05;;
37409;SDS011;23275;48.914;12.566;2023-05-15T08:40:04;2.15;;;1.52;;
37409;SDS011;23275;48.914;12.566;2023-05-15T08:42:34;2.30;;;1.45;;
37409;SDS011;23275;48.914;12.566;2023-05-15T08:45:07;2.28;;;1.38;;
37409;SDS011;23275;48.914;12.566;2023-05-15T08:47:34;3.08;;;1.50;;
37409;SDS011;23275;48.914;12.566;2023-05-15T08:50:14;2.75;;;1.27;;
37409;SDS011;23275;48.914;12.566;2023-05-15T08:52:41;2.53;;;1.20;;
37409;SDS011;23275;48.914;12.566;2023-05-15T08:55:09;2.17;;;1.25;;
37409;SDS011;23275;48.914;12.566;2023-05-15T08:57:35;3.35;;;0.93;;
37409;SDS011;23275;48.914;12.566;2023-05-15T09:00:02;2.25;;;1.30;;
37409;SDS011;23275;48.914;12.566;2023-05-15T09:02:31;2.13;;;1.25;;
37409;SDS011;23275;48.914;12.566;2023-05-15T09:04:57;2.35;;;1.20;;
37409;SDS011;23275;48.914;12.566;2023-05-15T09:07:22;2.90;;;1.10;;
37409;SDS011;23275;48.914;12.566;2023-05-15T09:09:48;3.33;;;1.20;;
37409;SDS011;23275;48.914;12.566;2023-05-15T09:12:15;1.77;;;0.80;;
37409;SDS011;23275;48.914;12.566;2023-05-15T09:14:41;4.07;;;1.20;;
37409;SDS011;23275;48.914;12.566;2023-05-15T09:17:10;2.10;;;1.20;;
37409;SDS011;23275;48.914;12.566;2023-05-15T09:19:40;2.00;;;1.00;;
37409;SDS011;23275;48.914;12.566;2023-05-15T09:22:12;2.63;;;1.10;;
37409;SDS011;23275;48.914;12.566;2023-05-15T09:24:45;3.30;;;1.52;;
37409;SDS011;23275;48.914;12.566;2023-05-15T09:27:12;2.30;;;1.38;;
37409;SDS011;23275;48.914;12.566;2023-05-15T09:29:38;2.22;;;1.30;;
37409;SDS011;23275;48.914;12.566;2023-05-15T09:32:08;3.28;;;1.52;;
37409;SDS011;23275;48.914;12.566;2023-05-15T09:34:36;3.08;;;1.35;;
37409;SDS011;23275;48.914;12.566;2023-05-15T09:37:06;2.15;;;1.35;;
37409;SDS011;23275;48.914;12.566;2023-05-15T09:39:40;2.33;;;1.50;;
37409;SDS011;23275;48.914;12.566;2023-05-15T09:44:33;3.95;;;1.33;;
37409;SDS011;23275;48.914;12.566;2023-05-15T09:46:59;3.58;;;1.63;;
37409;SDS011;23275;48.914;12.566;2023-05-15T09:49:28;2.10;;;1.30;;
37409;SDS011;23275;48.914;12.566;2023-05-15T09:51:57;1.83;;;1.10;;
37409;SDS011;23275;48.914;12.566;2023-05-15T09:54:23;2.08;;;1.42;;
37409;SDS011;23275;48.914;12.566;2023-05-15T09:56:51;2.85;;;1.67;;
37409;SDS011;23275;48.914;12.566;2023-05-15T09:59:18;2.47;;;1.30;;
37409;SDS011;23275;48.914;12.566;2023-05-15T10:01:46;2.63;;;1.10;;
37409;SDS011;23275;48.914;12.566;2023-05-15T10:04:13;4.22;;;1.60;;
37409;SDS011;23275;48.914;12.566;2023-05-15T10:06:42;1.75;;;1.20;;
37409;SDS011;23275;48.914;12.566;2023-05-15T10:09:12;2.05;;;1.55;;
37409;SDS011;23275;48.914;12.566;2023-05-15T10:11:39;3.35;;;1.45;;
37409;SDS011;23275;48.914;12.566;2023-05-15T10:14:08;3.25;;;1.30;;
37409;SDS011;23275;48.914;12.566;2023-05-15T10:16:35;2.17;;;1.35;;
37409;SDS011;23275;48.914;12.566;2023-05-15T10:19:08;2.63;;;1.40;;
37409;SDS011;23275;48.914;12.566;2023-05-15T10:21:36;2.75;;;1.35;;
37409;SDS011;23275;48.914;12.566;2023-05-15T10:24:03;4.57;;;1.48;;
37409;SDS011;23275;48.914;12.566;2023-05-15T10:26:36;3.20;;;1.38;;
37409;SDS011;23275;48.914;12.566;2023-05-15T10:29:04;1.83;;;1.20;;
37409;SDS011;23275;48.914;12.566;2023-05-15T10:31:33;2.13;;;1.20;;
37409;SDS011;23275;48.914;12.566;2023-05-15T10:34:04;2.03;;;1.35;;
37409;SDS011;23275;48.914;12.566;2023-05-15T10:36:32;2.10;;;1.52;;
37409;SDS011;23275;48.914;12.566;2023-05-15T10:38:59;2.08;;;1.35;;
37409;SDS011;23275;48.914;12.566;2023-05-15T10:41:26;2.22;;;1.35;;
37409;SDS011;23275;48.914;12.566;2023-05-15T10:43:54;2.60;;;1.40;;
37409;SDS011;23275;48.914;12.566;2023-05-15T10:46:21;3.03;;;1.42;;
37409;SDS011;23275;48.914;12.566;2023-05-15T10:48:47;2.80;;;1.42;;
37409;SDS011;23275;48.914;12.566;2023-05-15T10:51:15;2.60;;;1.60;;
37409;SDS011;23275;48.914;12.566;2023-05-15T10:53:43;3.40;;;1.70;;
37409;SDS011;23275;48.914;12.566;2023-05-15T10:56:13;3.13;;;1.50;;
37409;SDS011;23275;48.914;12.566;2023-05-15T10:58:43;2.15;;;1.40;;
37409;SDS011;23275;48.914;12.566;2023-05-15T11:03:51;3.55;;;1.80;;
37409;SDS011;23275;48.914;12.566;2023-05-15T11:06:42;3.15;;;1.88;;
37409;SDS011;23275;48.914;12.566;2023-05-15T11:11:53;3.15;;;1.90;;
37409;SDS011;23275;48.914;12.566;2023-05-15T11:14:24;3.03;;;2.08;;
37409;SDS011;23275;48.914;12.566;2023-05-15T11:21:57;5.18;;;2.75;;
37409;SDS011;23275;48.914;12.566;2023-05-15T11:27:03;5.43;;;3.38;;
37409;SDS011;23275;48.914;12.566;2023-05-15T11:29:29;5.45;;;3.65;;
37409;SDS011;23275;48.914;12.566;2023-05-15T11:31:55;4.90;;;3.60;;
37409;SDS011;23275;48.914;12.566;2023-05-15T11:34:33;4.45;;;3.42;;
37409;SDS011;23275;48.914;12.566;2023-05-15T11:36:59;7.30;;;3.58;;
37409;SDS011;23275;48.914;12.566;2023-05-15T11:39:26;6.78;;;3.58;;
37409;SDS011;23275;48.914;12.566;2023-05-15T11:41:55;5.90;;;4.07;;
37409;SDS011;23275;48.914;12.566;2023-05-15T11:44:21;5.10;;;3.88;;
37409;SDS011;23275;48.914;12.566;2023-05-15T11:46:48;6.10;;;4.05;;
37409;SDS011;23275;48.914;12.566;2023-05-15T11:49:18;4.15;;;2.22;;
37409;SDS011;23275;48.914;12.566;2023-05-15T11:51:44;5.50;;;2.45;;
37409;SDS011;23275;48.914;12.566;2023-05-15T11:54:12;3.13;;;2.10;;
37409;SDS011;23275;48.914;12.566;2023-05-15T11:56:44;2.90;;;1.98;;
37409;SDS011;23275;48.914;12.566;2023-05-15T11:59:13;2.35;;;1.88;;
37409;SDS011;23275;48.914;12.566;2023-05-15T12:01:42;4.18;;;2.10;;
37409;SDS011;23275;48.914;12.566;2023-05-15T12:04:15;3.30;;;2.00;;
37409;SDS011;23275;48.914;12.566;2023-05-15T12:06:41;4.18;;;2.00;;
37409;SDS011;23275;48.914;12.566;2023-05-15T12:09:17;3.33;;;2.10;;
37409;SDS011;23275;48.914;12.566;2023-05-15T12:11:52;4.10;;;2.30;;
37409;SDS011;23275;48.914;12.566;2023-05-15T12:14:27;2.75;;;2.13;;
37409;SDS011;23275;48.914;12.566;2023-05-15T12:16:54;4.72;;;2.95;;
37409;SDS011;23275;48.914;12.566;2023-05-15T12:19:26;4.22;;;2.55;;
37409;SDS011;23275;48.914;12.566;2023-05-15T12:21:52;4.03;;;2.55;;
37409;SDS011;23275;48.914;12.566;2023-05-15T12:24:18;3.25;;;2.20;;
37409;SDS011;23275;48.914;12.566;2023-05-15T12:26:44;5.57;;;2.20;;
37409;SDS011;23275;48.914;12.566;2023-05-15T12:29:10;2.53;;;1.70;;
37409;SDS011;23275;48.914;12.566;2023-05-15T12:31:37;2.65;;;1.60;;
37409;SDS011;23275;48.914;12.566;2023-05-15T12:34:03;2.00;;;1.33;;
37409;SDS011;23275;48.914;12.566;2023-05-15T12:36:29;3.33;;;1.60;;
37409;SDS011;23275;48.914;12.566;2023-05-15T12:38:55;3.85;;;1.70;;
37409;SDS011;23275;48.914;12.566;2023-05-15T12:41:25;4.35;;;1.85;;
37409;SDS011;23275;48.914;12.566;2023-05-15T12:43:53;2.95;;;1.67;;
37409;SDS011;23275;48.914;12.566;2023-05-15T12:46:22;2.40;;;1.30;;
37409;SDS011;23275;48.914;12.566;2023-05-15T12:48:50;1.85;;;0.95;;
37409;SDS011;23275;48.914;12.566;2023-05-15T12:51:16;2.67;;;1.10;;
37409;SDS011;23275;48.914;12.566;2023-05-15T12:53:43;2.05;;;1.20;;
37409;SDS011;23275;48.914;12.566;2023-05-15T12:56:14;2.58;;;1.35;;
37409;SDS011;23275;48.914;12.566;2023-05-15T12:58:40;3.75;;;1.30;;
37409;SDS011;23275;48.914;12.566;2023-05-15T13:01:06;1.98;;;1.15;;
37409;SDS011;23275;48.914;12.566;2023-05-15T13:03:31;2.15;;;1.27;;
37409;SDS011;23275;48.914;12.566;2023-05-15T13:05:57;2.42;;;1.27;;
37409;SDS011;23275;48.914;12.566;2023-05-15T13:08:23;2.85;;;1.40;;
37409;SDS011;23275;48.914;12.566;2023-05-15T13:10:54;2.95;;;1.27;;
37409;SDS011;23275;48.914;12.566;2023-05-15T13:13:21;2.25;;;1.23;;
37409;SDS011;23275;48.914;12.566;2023-05-15T13:15:47;2.13;;;1.20;;
37409;SDS011;23275;48.914;12.566;2023-05-15T13:18:13;4.57;;;1.50;;
37409;SDS011;23275;48.914;12.566;2023-05-15T13:20:42;3.47;;;1.40;;
37409;SDS011;23275;48.914;12.566;2023-05-15T13:23:13;3.47;;;1.80;;
37409;SDS011;23275;48.914;12.566;2023-05-15T13:25:43;2.58;;;1.27;;
37409;SDS011;23275;48.914;12.566;2023-05-15T13:28:09;3.00;;;1.70;;
37409;SDS011;23275;48.914;12.566;2023-05-15T13:30:36;2.97;;;1.92;;
37409;SDS011;23275;48.914;12.566;2023-05-15T13:33:05;3.03;;;1.90;;
37409;SDS011;23275;48.914;12.566;2023-05-15T13:35:32;4.20;;;2.47;;
37409;SDS011;23275;48.914;12.566;2023-05-15T13:37:59;3.83;;;2.60;;
37409;SDS011;23275;48.914;12.566;2023-05-15T13:40:25;4.28;;;2.58;;
37409;SDS011;23275;48.914;12.566;2023-05-15T13:42:51;3.85;;;2.67;;
37409;SDS011;23275;48.914;12.566;2023-05-15T13:45:17;2.65;;;1.30;;
37409;SDS011;23275;48.914;12.566;2023-05-15T13:47:43;2.85;;;1.73;;
37409;SDS011;23275;48.914;12.566;2023-05-15T13:50:09;2.28;;;1.50;;
37409;SDS011;23275;48.914;12.566;2023-05-15T13:52:37;2.13;;;1.27;;
37409;SDS011;23275;48.914;12.566;2023-05-15T13:55:04;2.78;;;1.90;;
37409;SDS011;23275;48.914;12.566;2023-05-15T13:57:30;3.60;;;1.60;;
37409;SDS011;23275;48.914;12.566;2023-05-15T13:59:56;2.33;;;1.50;;
37409;SDS011;23275;48.914;12.566;2023-05-15T14:02:22;2.00;;;1.20;;
37409;SDS011;23275;48.914;12.566;2023-05-15T14:04:50;4.10;;;1.50;;
37409;SDS011;23275;48.914;12.566;2023-05-15T14:07:22;2.45;;;1.60;;
37409;SDS011;23275;48.914;12.566;2023-05-15T14:09:48;2.40;;;1.40;;
37409;SDS011;23275;48.914;12.566;2023-05-15T14:12:14;2.55;;;1.50;;
37409;SDS011;23275;48.914;12.566;2023-05-15T14:14:39;2.78;;;1.45;;
37409;SDS011;23275;48.914;12.566;2023-05-15T14:17:05;2.25;;;1.30;;
37409;SDS011;23275;48.914;12.566;2023-05-15T14:19:30;2.78;;;1.50;;
37409;SDS011;23275;48.914;12.566;2023-05-15T14:21:56;2.22;;;1.38;;
37409;SDS011;23275;48.914;12.566;2023-05-15T14:24:21;2.65;;;1.50;;
37409;SDS011;23275;48.914;12.566;2023-05-15T14:26:47;2.30;;;1.50;;
37409;SDS011;23275;48.914;12.566;2023-05-15T14:29:13;2.28;;;1.58;;
37409;SDS011;23275;48.914;12.566;2023-05-15T14:31:39;2.50;;;1.33;;
37409;SDS011;23275;48.914;12.566;2023-05-15T14:34:05;2.60;;;1.80;;
37409;SDS011;23275;48.914;12.566;2023-05-15T14:36:31;2.60;;;1.70;;
37409;SDS011;23275;48.914;12.566;2023-05-15T14:38:56;4.97;;;1.70;;
37409;SDS011;23275;48.914;12.566;2023-05-15T14:41:22;4.00;;;2.30;;
37409;SDS011;23275;48.914;12.566;2023-05-15T14:43:48;4.03;;;2.22;;
37409;SDS011;23275;48.914;12.566;2023-05-15T14:46:13;3.72;;;1.90;;
37409;SDS011;23275;48.914;12.566;2023-05-15T14:48:39;4.07;;;1.95;;
37409;SDS011;23275;48.914;12.566;2023-05-15T14:51:05;3.90;;;1.70;;
37409;SDS011;23275;48.914;12.566;2023-05-15T14:53:31;2.60;;;1.88;;
37409;SDS011;23275;48.914;12.566;2023-05-15T14:55:58;2.65;;;1.80;;
37409;SDS011;23275;48.914;12.566;2023-05-15T14:58:23;3.10;;;1.75;;
37409;SDS011;23275;48.914;12.566;2023-05-15T15:00:49;3.08;;;1.80;;
37409;SDS011;23275;48.914;12.566;2023-05-15T15:03:15;2.40;;;1.52;;